sensor_id;sensor_type;location;lat;lon;timestamp;P1;durP1;ratioP1;P2;durP2;ratioP2
37715;SDS011;23562;50.540;12.504;2022-09-17T00:01:40;6.90;;;3.70;;
37715;SDS011;23562;50.540;12.504;2022-09-17T00:04:05;7.67;;;4.13;;
37715;SDS011;23562;50.540;12.504;2022-09-17T00:06:32;10.65;;;3.90;;
37715;SDS011;23562;50.540;12.504;2022-09-17T00:08:57;5.78;;;3.42;;
37715;SDS011;23562;50.540;12.504;2022-09-17T00:11:24;5.80;;;3.70;;
37715;SDS011;23562;50.540;12.504;2022-09-17T00:13:52;5.88;;;3.70;;
37715;SDS011;23562;50.540;12.504;2022-09-17T00:17:01;14.50;;;4.35;;
37715;SDS011;23562;50.540;12.504;2022-09-17T00:19:11;8.40;;;4.30;;
37715;SDS011;23562;50.540;12.504;2022-09-17T00:21:36;10.32;;;5.03;;
37715;SDS011;23562;50.540;12.504;2022-09-17T00:24:03;13.00;;;5.23;;
37715;SDS011;23562;50.540;12.504;2022-09-17T00:26:30;9.60;;;4.05;;
37715;SDS011;23562;50.540;12.504;2022-09-17T00:28:55;8.95;;;3.90;;
37715;SDS011;23562;50.540;12.504;2022-09-17T00:31:21;7.90;;;3.35;;
37715;SDS011;23562;50.540;12.504;2022-09-17T00:33:47;7.35;;;3.85;;
37715;SDS011;23562;50.540;12.504;2022-09-17T00:36:13;7.35;;;3.40;;
37715;SDS011;23562;50.540;12.504;2022-09-17T00:38:38;7.13;;;3.60;;
37715;SDS011;23562;50.540;12.504;2022-09-17T00:41:04;11.02;;;4.05;;
37715;SDS011;23562;50.540;12.504;2022-09-17T00:45:58;10.65;;;3.55;;
37715;SDS011;23562;50.540;12.504;2022-09-17T00:48:23;8.32;;;3.10;;
37715;SDS011;23562;50.540;12.504;2022-09-17T00:50:48;9.93;;;3.90;;
37715;SDS011;23562;50.540;12.504;2022-09-17T00:53:14;7.97;;;3.10;;
37715;SDS011;23562;50.540;12.504;2022-09-17T00:55:51;7.22;;;3.40;;
37715;SDS011;23562;50.540;12.504;2022-09-17T00:58:22;9.38;;;3.65;;
37715;SDS011;23562;50.540;12.504;2022-09-17T01:00:50;8.48;;;3.17;;
37715;SDS011;23562;50.540;12.504;2022-09-17T01:03:15;12.70;;;3.53;;
37715;SDS011;23562;50.540;12.504;2022-09-17T01:27:15;11.10;;;3.53;;
37715;SDS011;23562;50.540;12.504;2022-09-17T01:32:18;8.32;;;3.55;;
37715;SDS011;23562;50.540;12.504;2022-09-17T01:34:49;8.40;;;3.13;;
37715;SDS011;23562;50.540;12.504;2022-09-17T01:40:14;6.15;;;2.70;;
37715;SDS011;23562;50.540;12.504;2022-09-17T01:42:51;9.60;;;3.28;;
37715;SDS011;23562;50.540;12.504;2022-09-17T01:45:20;6.60;;;2.50;;
37715;SDS011;23562;50.540;12.504;2022-09-17T01:48:02;7.97;;;2.90;;
37715;SDS011;23562;50.540;12.504;2022-09-17T01:50:36;9.02;;;2.88;;
37715;SDS011;23562;50.540;12.504;2022-09-17T01:53:09;6.68;;;3.13;;
37715;SDS011;23562;50.540;12.504;2022-09-17T01:55:36;8.07;;;3.00;;
37715;SDS011;23562;50.540;12.504;2022-09-17T01:58:07;10.48;;;3.15;;
37715;SDS011;23562;50.540;12.504;2022-09-17T02:00:39;9.10;;;3.13;;
37715;SDS011;23562;50.540;12.504;2022-09-17T02:03:14;7.43;;;3.05;;
37715;SDS011;23562;50.540;12.504;2022-09-17T02:06:00;8.73;;;3.20;;
37715;SDS011;23562;50.540;12.504;2022-09-17T02:09:10;15.93;;;3.75;;
37715;SDS011;23562;50.540;12.504;2022-09-17T02:11:18;9.15;;;3.40;;
37715;SDS011;23562;50.540;12.504;2022-09-17T02:13:53;6.10;;;3.15;;
37715;SDS011;23562;50.540;12.504;2022-09-17T02:16:27;7.95;;;3.30;;
37715;SDS011;23562;50.540;12.504;2022-09-17T02:18:56;12.13;;;3.85;;
37715;SDS011;23562;50.540;12.504;2022-09-17T02:21:30;11.40;;;4.07;;
37715;SDS011;23562;50.540;12.504;2022-09-17T02:24:06;11.02;;;3.75;;
37715;SDS011;23562;50.540;12.504;2022-09-17T02:26:38;9.27;;;4.18;;
37715;SDS011;23562;50.540;12.504;2022-09-17T02:29:20;8.60;;;3.80;;
37715;SDS011;23562;50.540;12.504;2022-09-17T02:31:50;5.65;;;4.10;;
37715;SDS011;23562;50.540;12.504;2022-09-17T02:34:15;8.23;;;4.20;;
37715;SDS011;23562;50.540;12.504;2022-09-17T02:36:41;7.32;;;4.43;;
37715;SDS011;23562;50.540;12.504;2022-09-17T02:39:07;11.00;;;4.95;;
37715;SDS011;23562;50.540;12.504;2022-09-17T02:41:35;7.47;;;4.47;;
37715;SDS011;23562;50.540;12.504;2022-09-17T02:52:54;9.43;;;5.43;;
37715;SDS011;23562;50.540;12.504;2022-09-17T03:00:41;9.98;;;6.30;;
37715;SDS011;23562;50.540;12.504;2022-09-17T03:03:09;13.27;;;6.07;;
37715;SDS011;23562;50.540;12.504;2022-09-17T03:05:53;13.27;;;5.78;;
37715;SDS011;23562;50.540;12.504;2022-09-17T03:08:26;8.40;;;6.68;;
37715;SDS011;23562;50.540;12.504;2022-09-17T03:10:53;9.63;;;5.72;;
37715;SDS011;23562;50.540;12.504;2022-09-17T03:13:19;10.52;;;6.68;;
37715;SDS011;23562;50.540;12.504;2022-09-17T03:15:44;11.43;;;7.13;;
37715;SDS011;23562;50.540;12.504;2022-09-17T03:18:09;11.90;;;7.50;;
37715;SDS011;23562;50.540;12.504;2022-09-17T03:20:34;10.68;;;6.93;;
37715;SDS011;23562;50.540;12.504;2022-09-17T03:23:00;9.95;;;6.93;;
37715;SDS011;23562;50.540;12.504;2022-09-17T03:25:25;10.02;;;6.50;;
37715;SDS011;23562;50.540;12.504;2022-09-17T03:27:50;10.88;;;7.30;;
37715;SDS011;23562;50.540;12.504;2022-09-17T03:30:16;10.43;;;7.60;;
37715;SDS011;23562;50.540;12.504;2022-09-17T03:32:41;12.27;;;7.55;;
37715;SDS011;23562;50.540;12.504;2022-09-17T03:35:06;11.88;;;7.88;;
37715;SDS011;23562;50.540;12.504;2022-09-17T03:37:32;12.38;;;8.18;;
37715;SDS011;23562;50.540;12.504;2022-09-17T03:39:57;12.27;;;8.80;;
37715;SDS011;23562;50.540;12.504;2022-09-17T03:42:22;15.00;;;8.70;;
37715;SDS011;23562;50.540;12.504;2022-09-17T03:44:48;12.35;;;9.05;;
37715;SDS011;23562;50.540;12.504;2022-09-17T03:47:13;14.00;;;9.52;;
37715;SDS011;23562;50.540;12.504;2022-09-17T03:49:41;11.90;;;8.90;;
37715;SDS011;23562;50.540;12.504;2022-09-17T03:52:06;18.15;;;11.02;;
37715;SDS011;23562;50.540;12.504;2022-09-17T03:54:31;16.60;;;11.10;;
37715;SDS011;23562;50.540;12.504;2022-09-17T03:56:56;18.48;;;11.73;;
37715;SDS011;23562;50.540;12.504;2022-09-17T03:59:21;13.50;;;10.13;;
37715;SDS011;23562;50.540;12.504;2022-09-17T04:01:47;17.45;;;11.95;;
37715;SDS011;23562;50.540;12.504;2022-09-17T04:04:12;14.88;;;10.38;;
37715;SDS011;23562;50.540;12.504;2022-09-17T04:06:37;13.88;;;9.73;;
37715;SDS011;23562;50.540;12.504;2022-09-17T04:09:02;13.07;;;9.98;;
37715;SDS011;23562;50.540;12.504;2022-09-17T04:11:29;13.10;;;9.55;;
37715;SDS011;23562;50.540;12.504;2022-09-17T04:13:54;10.52;;;9.15;;
37715;SDS011;23562;50.540;12.504;2022-09-17T04:16:19;10.20;;;7.75;;
37715;SDS011;23562;50.540;12.504;2022-09-17T04:18:45;10.18;;;8.77;;
37715;SDS011;23562;50.540;12.504;2022-09-17T04:21:10;12.35;;;7.55;;
37715;SDS011;23562;50.540;12.504;2022-09-17T04:23:35;11.15;;;8.32;;
37715;SDS011;23562;50.540;12.504;2022-09-17T04:26:00;9.70;;;7.72;;
37715;SDS011;23562;50.540;12.504;2022-09-17T04:28:26;10.63;;;7.80;;
37715;SDS011;23562;50.540;12.504;2022-09-17T04:30:51;9.10;;;6.50;;
37715;SDS011;23562;50.540;12.504;2022-09-17T04:33:16;7.72;;;6.45;;
37715;SDS011;23562;50.540;12.504;2022-09-17T04:35:41;7.60;;;6.55;;
37715;SDS011;23562;50.540;12.504;2022-09-17T04:38:07;8.98;;;6.43;;
37715;SDS011;23562;50.540;12.504;2022-09-17T04:40:33;7.10;;;5.82;;
37715;SDS011;23562;50.540;12.504;2022-09-17T04:42:58;8.48;;;6.45;;
37715;SDS011;23562;50.540;12.504;2022-09-17T04:45:24;7.40;;;6.03;;
37715;SDS011;23562;50.540;12.504;2022-09-17T04:47:49;9.60;;;5.88;;
37715;SDS011;23562;50.540;12.504;2022-09-17T04:50:15;8.25;;;6.45;;
37715;SDS011;23562;50.540;12.504;2022-09-17T04:52:43;8.43;;;6.50;;
37715;SDS011;23562;50.540;12.504;2022-09-17T04:55:09;7.63;;;6.78;;
37715;SDS011;23562;50.540;12.504;2022-09-17T04:57:35;8.55;;;6.20;;
37715;SDS011;23562;50.540;12.504;2022-09-17T05:00:00;8.35;;;6.47;;
37715;SDS011;23562;50.540;12.504;2022-09-17T05:02:25;12.23;;;6.55;;
37715;SDS011;23562;50.540;12.504;2022-09-17T05:04:51;7.95;;;6.13;;
37715;SDS011;23562;50.540;12.504;2022-09-17T05:07:16;7.30;;;6.40;;
37715;SDS011;23562;50.540;12.504;2022-09-17T05:09:41;7.10;;;5.93;;
37715;SDS011;23562;50.540;12.504;2022-09-17T05:12:06;6.85;;;5.45;;
37715;SDS011;23562;50.540;12.504;2022-09-17T05:14:32;7.38;;;5.50;;
37715;SDS011;23562;50.540;12.504;2022-09-17T05:16:57;6.85;;;5.05;;
37715;SDS011;23562;50.540;12.504;2022-09-17T05:19:22;6.88;;;5.18;;
37715;SDS011;23562;50.540;12.504;2022-09-17T05:21:47;5.97;;;4.65;;
37715;SDS011;23562;50.540;12.504;2022-09-17T05:24:13;6.80;;;5.00;;
37715;SDS011;23562;50.540;12.504;2022-09-17T05:26:38;6.63;;;4.70;;
37715;SDS011;23562;50.540;12.504;2022-09-17T05:29:03;4.28;;;3.85;;
37715;SDS011;23562;50.540;12.504;2022-09-17T05:31:28;5.90;;;3.80;;
37715;SDS011;23562;50.540;12.504;2022-09-17T05:33:54;5.47;;;3.92;;
37715;SDS011;23562;50.540;12.504;2022-09-17T05:36:19;3.53;;;3.08;;
37715;SDS011;23562;50.540;12.504;2022-09-17T05:38:44;3.50;;;3.20;;
37715;SDS011;23562;50.540;12.504;2022-09-17T05:41:09;4.65;;;3.20;;
37715;SDS011;23562;50.540;12.504;2022-09-17T05:43:34;4.10;;;3.20;;
37715;SDS011;23562;50.540;12.504;2022-09-17T05:46:03;3.90;;;3.20;;
37715;SDS011;23562;50.540;12.504;2022-09-17T05:48:29;4.10;;;2.40;;
37715;SDS011;23562;50.540;12.504;2022-09-17T05:50:55;3.08;;;2.20;;
37715;SDS011;23562;50.540;12.504;2022-09-17T05:53:20;2.63;;;2.42;;
37715;SDS011;23562;50.540;12.504;2022-09-17T05:55:45;4.68;;;2.85;;
37715;SDS011;23562;50.540;12.504;2022-09-17T05:58:14;3.75;;;2.38;;
37715;SDS011;23562;50.540;12.504;2022-09-17T06:00:41;2.85;;;2.55;;
37715;SDS011;23562;50.540;12.504;2022-09-17T06:03:08;2.70;;;2.40;;
37715;SDS011;23562;50.540;12.504;2022-09-17T06:05:34;2.53;;;2.08;;
37715;SDS011;23562;50.540;12.504;2022-09-17T06:08:00;2.10;;;1.90;;
37715;SDS011;23562;50.540;12.504;2022-09-17T06:10:25;2.00;;;1.80;;
37715;SDS011;23562;50.540;12.504;2022-09-17T06:12:57;2.20;;;1.88;;
37715;SDS011;23562;50.540;12.504;2022-09-17T06:15:23;3.20;;;1.80;;
37715;SDS011;23562;50.540;12.504;2022-09-17T06:17:50;2.40;;;1.90;;
37715;SDS011;23562;50.540;12.504;2022-09-17T06:20:15;2.10;;;1.80;;
37715;SDS011;23562;50.540;12.504;2022-09-17T06:22:41;1.60;;;1.50;;
37715;SDS011;23562;50.540;12.504;2022-09-17T06:25:07;2.55;;;1.40;;
37715;SDS011;23562;50.540;12.504;2022-09-17T06:27:33;1.60;;;1.30;;
37715;SDS011;23562;50.540;12.504;2022-09-17T06:29:59;1.20;;;1.10;;
37715;SDS011;23562;50.540;12.504;2022-09-17T06:32:25;1.00;;;0.90;;
37715;SDS011;23562;50.540;12.504;2022-09-17T06:34:50;1.17;;;1.08;;
37715;SDS011;23562;50.540;12.504;2022-09-17T06:37:17;1.00;;;0.90;;
37715;SDS011;23562;50.540;12.504;2022-09-17T06:39:42;1.42;;;1.27;;
37715;SDS011;23562;50.540;12.504;2022-09-17T06:42:09;2.08;;;1.00;;
37715;SDS011;23562;50.540;12.504;2022-09-17T06:44:35;1.38;;;0.93;;
37715;SDS011;23562;50.540;12.504;2022-09-17T06:47:00;1.05;;;0.95;;
37715;SDS011;23562;50.540;12.504;2022-09-17T06:49:26;0.90;;;0.90;;
37715;SDS011;23562;50.540;12.504;2022-09-17T06:51:52;2.55;;;1.20;;
37715;SDS011;23562;50.540;12.504;2022-09-17T06:54:18;1.30;;;1.20;;
37715;SDS011;23562;50.540;12.504;2022-09-17T06:56:44;1.40;;;1.30;;
37715;SDS011;23562;50.540;12.504;2022-09-17T06:59:11;1.48;;;1.38;;
37715;SDS011;23562;50.540;12.504;2022-09-17T07:01:36;32.92;;;2.45;;
37715;SDS011;23562;50.540;12.504;2022-09-17T07:04:01;2.22;;;1.65;;
37715;SDS011;23562;50.540;12.504;2022-09-17T07:06:27;6.68;;;2.25;;
37715;SDS011;23562;50.540;12.504;2022-09-17T07:08:52;21.77;;;18.10;;
37715;SDS011;23562;50.540;12.504;2022-09-17T07:11:17;6.38;;;3.85;;
37715;SDS011;23562;50.540;12.504;2022-09-17T07:13:42;7.32;;;3.55;;
37715;SDS011;23562;50.540;12.504;2022-09-17T07:16:08;7.60;;;3.17;;
37715;SDS011;23562;50.540;12.504;2022-09-17T07:18:34;3.78;;;3.03;;
37715;SDS011;23562;50.540;12.504;2022-09-17T07:21:00;7.00;;;3.65;;
37715;SDS011;23562;50.540;12.504;2022-09-17T07:23:28;9.23;;;5.25;;
37715;SDS011;23562;50.540;12.504;2022-09-17T07:25:56;8.52;;;3.88;;
37715;SDS011;23562;50.540;12.504;2022-09-17T07:28:23;7.97;;;3.33;;
37715;SDS011;23562;50.540;12.504;2022-09-17T07:30:49;10.60;;;3.22;;
37715;SDS011;23562;50.540;12.504;2022-09-17T07:33:16;10.95;;;3.30;;
37715;SDS011;23562;50.540;12.504;2022-09-17T07:35:57;9.20;;;3.45;;
37715;SDS011;23562;50.540;12.504;2022-09-17T07:38:24;9.70;;;3.50;;
37715;SDS011;23562;50.540;12.504;2022-09-17T07:40:54;9.40;;;3.38;;
37715;SDS011;23562;50.540;12.504;2022-09-17T07:43:24;8.82;;;2.92;;
37715;SDS011;23562;50.540;12.504;2022-09-17T07:45:50;11.48;;;3.10;;
37715;SDS011;23562;50.540;12.504;2022-09-17T07:48:16;16.65;;;3.58;;
37715;SDS011;23562;50.540;12.504;2022-09-17T07:50:41;13.68;;;3.45;;
37715;SDS011;23562;50.540;12.504;2022-09-17T07:53:07;8.90;;;3.13;;
37715;SDS011;23562;50.540;12.504;2022-09-17T07:55:32;11.70;;;3.80;;
37715;SDS011;23562;50.540;12.504;2022-09-17T07:57:57;10.57;;;2.70;;
37715;SDS011;23562;50.540;12.504;2022-09-17T08:00:22;11.73;;;2.92;;
37715;SDS011;23562;50.540;12.504;2022-09-17T08:02:51;12.57;;;2.75;;
37715;SDS011;23562;50.540;12.504;2022-09-17T08:05:18;11.93;;;2.85;;
37715;SDS011;23562;50.540;12.504;2022-09-17T08:07:43;14.80;;;3.30;;
37715;SDS011;23562;50.540;12.504;2022-09-17T08:10:08;11.82;;;3.05;;
37715;SDS011;23562;50.540;12.504;2022-09-17T08:12:33;13.30;;;3.15;;
37715;SDS011;23562;50.540;12.504;2022-09-17T08:14:59;11.45;;;2.85;;
37715;SDS011;23562;50.540;12.504;2022-09-17T08:17:24;11.60;;;3.05;;
37715;SDS011;23562;50.540;12.504;2022-09-17T08:19:49;13.00;;;3.63;;
37715;SDS011;23562;50.540;12.504;2022-09-17T08:22:14;13.52;;;3.22;;
37715;SDS011;23562;50.540;12.504;2022-09-17T08:24:40;9.50;;;2.50;;
37715;SDS011;23562;50.540;12.504;2022-09-17T08:27:06;15.73;;;2.97;;
37715;SDS011;23562;50.540;12.504;2022-09-17T08:29:31;12.70;;;2.95;;
37715;SDS011;23562;50.540;12.504;2022-09-17T08:31:57;12.55;;;2.45;;
37715;SDS011;23562;50.540;12.504;2022-09-17T08:34:22;15.32;;;3.00;;
37715;SDS011;23562;50.540;12.504;2022-09-17T08:36:47;14.52;;;3.00;;
37715;SDS011;23562;50.540;12.504;2022-09-17T08:39:13;7.97;;;3.03;;
37715;SDS011;23562;50.540;12.504;2022-09-17T08:41:44;15.13;;;3.60;;
37715;SDS011;23562;50.540;12.504;2022-09-17T08:44:25;10.73;;;2.30;;
37715;SDS011;23562;50.540;12.504;2022-09-17T08:46:53;10.25;;;2.33;;
37715;SDS011;23562;50.540;12.504;2022-09-17T08:52:00;13.02;;;2.83;;
37715;SDS011;23562;50.540;12.504;2022-09-17T08:55:04;10.52;;;4.22;;
37715;SDS011;23562;50.540;12.504;2022-09-17T08:57:35;7.55;;;2.90;;
37715;SDS011;23562;50.540;12.504;2022-09-17T09:00:03;6.35;;;2.70;;
37715;SDS011;23562;50.540;12.504;2022-09-17T09:05:29;13.93;;;3.20;;
37715;SDS011;23562;50.540;12.504;2022-09-17T09:13:52;10.88;;;3.15;;
37715;SDS011;23562;50.540;12.504;2022-09-17T09:16:23;14.38;;;2.50;;
37715;SDS011;23562;50.540;12.504;2022-09-17T09:18:58;9.75;;;2.30;;
37715;SDS011;23562;50.540;12.504;2022-09-17T09:21:36;15.20;;;2.50;;
37715;SDS011;23562;50.540;12.504;2022-09-17T09:27:16;12.23;;;2.42;;
37715;SDS011;23562;50.540;12.504;2022-09-17T09:32:43;11.40;;;3.20;;
37715;SDS011;23562;50.540;12.504;2022-09-17T09:35:29;11.23;;;2.38;;
37715;SDS011;23562;50.540;12.504;2022-09-17T09:40:46;10.27;;;3.33;;
37715;SDS011;23562;50.540;12.504;2022-09-17T09:43:28;13.57;;;3.20;;
37715;SDS011;23562;50.540;12.504;2022-09-17T09:48:56;17.08;;;2.85;;
37715;SDS011;23562;50.540;12.504;2022-09-17T09:57:09;13.40;;;3.10;;
37715;SDS011;23562;50.540;12.504;2022-09-17T09:59:38;10.48;;;3.30;;
37715;SDS011;23562;50.540;12.504;2022-09-17T10:02:05;8.82;;;2.38;;
37715;SDS011;23562;50.540;12.504;2022-09-17T10:04:31;10.95;;;4.38;;
37715;SDS011;23562;50.540;12.504;2022-09-17T10:07:00;11.32;;;3.88;;
37715;SDS011;23562;50.540;12.504;2022-09-17T10:09:28;7.97;;;2.50;;
37715;SDS011;23562;50.540;12.504;2022-09-17T10:12:00;12.18;;;2.72;;
37715;SDS011;23562;50.540;12.504;2022-09-17T10:14:28;13.63;;;4.25;;
37715;SDS011;23562;50.540;12.504;2022-09-17T10:17:14;14.95;;;2.83;;
37715;SDS011;23562;50.540;12.504;2022-09-17T10:19:40;15.55;;;3.45;;
37715;SDS011;23562;50.540;12.504;2022-09-17T10:22:29;12.27;;;2.47;;
37715;SDS011;23562;50.540;12.504;2022-09-17T10:24:57;14.73;;;2.45;;
37715;SDS011;23562;50.540;12.504;2022-09-17T10:27:24;13.35;;;2.63;;
37715;SDS011;23562;50.540;12.504;2022-09-17T10:29:54;12.65;;;2.72;;
37715;SDS011;23562;50.540;12.504;2022-09-17T10:32:39;6.95;;;1.40;;
37715;SDS011;23562;50.540;12.504;2022-09-17T10:35:13;11.10;;;2.10;;
37715;SDS011;23562;50.540;12.504;2022-09-17T10:37:50;9.50;;;2.00;;
37715;SDS011;23562;50.540;12.504;2022-09-17T10:42:42;17.33;;;2.75;;
37715;SDS011;23562;50.540;12.504;2022-09-17T10:45:10;8.48;;;1.80;;
37715;SDS011;23562;50.540;12.504;2022-09-17T10:47:49;8.90;;;2.08;;
37715;SDS011;23562;50.540;12.504;2022-09-17T10:50:16;11.77;;;2.65;;
37715;SDS011;23562;50.540;12.504;2022-09-17T10:52:53;17.67;;;3.70;;
37715;SDS011;23562;50.540;12.504;2022-09-17T11:14:49;16.60;;;3.10;;
37715;SDS011;23562;50.540;12.504;2022-09-17T11:20:42;7.07;;;1.88;;
37715;SDS011;23562;50.540;12.504;2022-09-17T11:26:03;17.35;;;4.00;;
37715;SDS011;23562;50.540;12.504;2022-09-17T11:28:56;14.15;;;3.75;;
37715;SDS011;23562;50.540;12.504;2022-09-17T11:34:41;15.48;;;3.08;;
37715;SDS011;23562;50.540;12.504;2022-09-17T11:40:24;17.00;;;3.30;;
37715;SDS011;23562;50.540;12.504;2022-09-17T11:43:01;11.18;;;3.03;;
37715;SDS011;23562;50.540;12.504;2022-09-17T11:45:33;16.50;;;5.10;;
37715;SDS011;23562;50.540;12.504;2022-09-17T11:48:08;10.10;;;2.10;;
37715;SDS011;23562;50.540;12.504;2022-09-17T11:50:58;19.02;;;3.63;;
37715;SDS011;23562;50.540;12.504;2022-09-17T11:53:36;30.92;;;10.65;;
37715;SDS011;23562;50.540;12.504;2022-09-17T11:56:14;47.22;;;16.45;;
37715;SDS011;23562;50.540;12.504;2022-09-17T11:58:54;29.63;;;9.45;;
37715;SDS011;23562;50.540;12.504;2022-09-17T12:04:54;19.05;;;6.35;;
37715;SDS011;23562;50.540;12.504;2022-09-17T12:09:40;33.00;;;9.88;;
37715;SDS011;23562;50.540;12.504;2022-09-17T12:14:51;24.73;;;15.25;;
37715;SDS011;23562;50.540;12.504;2022-09-17T12:17:42;10.82;;;4.22;;
37715;SDS011;23562;50.540;12.504;2022-09-17T12:20:31;15.82;;;5.07;;
37715;SDS011;23562;50.540;12.504;2022-09-17T12:23:01;22.52;;;5.30;;
37715;SDS011;23562;50.540;12.504;2022-09-17T12:25:40;12.10;;;3.95;;
37715;SDS011;23562;50.540;12.504;2022-09-17T12:28:24;21.05;;;5.85;;
37715;SDS011;23562;50.540;12.504;2022-09-17T12:31:03;10.50;;;2.72;;
37715;SDS011;23562;50.540;12.504;2022-09-17T12:33:36;14.30;;;2.80;;
37715;SDS011;23562;50.540;12.504;2022-09-17T12:36:12;27.55;;;8.75;;
37715;SDS011;23562;50.540;12.504;2022-09-17T12:38:51;12.10;;;2.50;;
37715;SDS011;23562;50.540;12.504;2022-09-17T12:41:36;16.55;;;2.65;;
37715;SDS011;23562;50.540;12.504;2022-09-17T12:44:21;13.70;;;2.55;;
37715;SDS011;23562;50.540;12.504;2022-09-17T12:55:26;16.10;;;2.63;;
37715;SDS011;23562;50.540;12.504;2022-09-17T13:00:39;14.50;;;2.20;;
37715;SDS011;23562;50.540;12.504;2022-09-17T13:03:14;14.50;;;2.58;;
37715;SDS011;23562;50.540;12.504;2022-09-17T13:05:53;10.75;;;2.50;;
37715;SDS011;23562;50.540;12.504;2022-09-17T13:08:39;11.15;;;2.47;;
37715;SDS011;23562;50.540;12.504;2022-09-17T13:11:26;14.63;;;2.33;;
37715;SDS011;23562;50.540;12.504;2022-09-17T13:14:01;9.60;;;2.08;;
37715;SDS011;23562;50.540;12.504;2022-09-17T13:16:45;14.00;;;2.33;;
37715;SDS011;23562;50.540;12.504;2022-09-17T13:19:23;11.80;;;2.20;;
37715;SDS011;23562;50.540;12.504;2022-09-17T13:22:04;8.75;;;1.88;;
37715;SDS011;23562;50.540;12.504;2022-09-17T13:24:41;9.63;;;2.13;;
37715;SDS011;23562;50.540;12.504;2022-09-17T13:27:18;13.63;;;2.60;;
37715;SDS011;23562;50.540;12.504;2022-09-17T13:37:41;11.00;;;1.88;;
37715;SDS011;23562;50.540;12.504;2022-09-17T13:40:23;15.15;;;2.45;;
37715;SDS011;23562;50.540;12.504;2022-09-17T13:42:52;10.73;;;2.10;;
37715;SDS011;23562;50.540;12.504;2022-09-17T13:45:19;18.15;;;1.80;;
37715;SDS011;23562;50.540;12.504;2022-09-17T13:50:24;11.98;;;1.88;;
37715;SDS011;23562;50.540;12.504;2022-09-17T13:52:58;6.53;;;1.63;;
37715;SDS011;23562;50.540;12.504;2022-09-17T13:57:56;6.78;;;1.65;;
37715;SDS011;23562;50.540;12.504;2022-09-17T14:05:57;14.98;;;4.78;;
37715;SDS011;23562;50.540;12.504;2022-09-17T14:13:45;9.43;;;1.98;;
37715;SDS011;23562;50.540;12.504;2022-09-17T14:24:21;8.57;;;2.00;;
37715;SDS011;23562;50.540;12.504;2022-09-17T14:26:52;4.45;;;1.20;;
37715;SDS011;23562;50.540;12.504;2022-09-17T14:29:32;5.93;;;1.60;;
37715;SDS011;23562;50.540;12.504;2022-09-17T14:32:13;3.15;;;0.90;;
37715;SDS011;23562;50.540;12.504;2022-09-17T14:34:41;2.92;;;0.90;;
37715;SDS011;23562;50.540;12.504;2022-09-17T14:37:09;13.25;;;6.53;;
37715;SDS011;23562;50.540;12.504;2022-09-17T14:39:51;15.32;;;8.52;;
37715;SDS011;23562;50.540;12.504;2022-09-17T14:45:09;6.60;;;2.55;;
37715;SDS011;23562;50.540;12.504;2022-09-17T14:47:40;6.07;;;1.30;;
37715;SDS011;23562;50.540;12.504;2022-09-17T14:50:17;5.13;;;1.50;;
37715;SDS011;23562;50.540;12.504;2022-09-17T14:52:48;5.57;;;2.05;;
37715;SDS011;23562;50.540;12.504;2022-09-17T14:57:51;10.70;;;2.40;;
37715;SDS011;23562;50.540;12.504;2022-09-17T15:00:40;5.82;;;2.40;;
37715;SDS011;23562;50.540;12.504;2022-09-17T15:03:21;7.90;;;2.90;;
37715;SDS011;23562;50.540;12.504;2022-09-17T15:05:47;6.03;;;2.13;;
37715;SDS011;23562;50.540;12.504;2022-09-17T15:08:15;7.53;;;2.20;;
37715;SDS011;23562;50.540;12.504;2022-09-17T15:13:27;10.80;;;3.38;;
37715;SDS011;23562;50.540;12.504;2022-09-17T15:16:00;6.38;;;2.17;;
37715;SDS011;23562;50.540;12.504;2022-09-17T15:18:46;8.27;;;2.38;;
37715;SDS011;23562;50.540;12.504;2022-09-17T15:21:33;7.45;;;2.42;;
37715;SDS011;23562;50.540;12.504;2022-09-17T15:24:42;6.10;;;2.20;;
37715;SDS011;23562;50.540;12.504;2022-09-17T15:27:13;11.55;;;2.50;;
37715;SDS011;23562;50.540;12.504;2022-09-17T15:29:47;9.15;;;2.97;;
37715;SDS011;23562;50.540;12.504;2022-09-17T15:32:15;9.00;;;2.88;;
37715;SDS011;23562;50.540;12.504;2022-09-17T15:34:41;10.27;;;3.00;;
37715;SDS011;23562;50.540;12.504;2022-09-17T15:37:19;10.65;;;2.88;;
37715;SDS011;23562;50.540;12.504;2022-09-17T15:39:49;17.98;;;5.32;;
37715;SDS011;23562;50.540;12.504;2022-09-17T15:42:18;10.63;;;3.25;;
37715;SDS011;23562;50.540;12.504;2022-09-17T15:44:45;7.05;;;1.60;;
37715;SDS011;23562;50.540;12.504;2022-09-17T15:50:18;7.70;;;1.38;;
37715;SDS011;23562;50.540;12.504;2022-09-17T15:52:45;5.97;;;1.95;;
37715;SDS011;23562;50.540;12.504;2022-09-17T15:55:31;6.85;;;1.48;;
37715;SDS011;23562;50.540;12.504;2022-09-17T15:58:00;6.78;;;1.85;;
37715;SDS011;23562;50.540;12.504;2022-09-17T16:00:27;4.30;;;1.33;;
37715;SDS011;23562;50.540;12.504;2022-09-17T16:02:52;7.50;;;1.77;;
37715;SDS011;23562;50.540;12.504;2022-09-17T16:07:49;18.45;;;6.80;;
37715;SDS011;23562;50.540;12.504;2022-09-17T16:10:15;5.88;;;1.70;;
37715;SDS011;23562;50.540;12.504;2022-09-17T16:12:41;6.13;;;1.23;;
37715;SDS011;23562;50.540;12.504;2022-09-17T16:15:06;7.35;;;1.20;;
37715;SDS011;23562;50.540;12.504;2022-09-17T16:20:08;5.85;;;1.88;;
37715;SDS011;23562;50.540;12.504;2022-09-17T16:22:36;5.90;;;1.70;;
37715;SDS011;23562;50.540;12.504;2022-09-17T16:25:11;9.50;;;2.28;;
37715;SDS011;23562;50.540;12.504;2022-09-17T16:27:43;5.47;;;1.52;;
37715;SDS011;23562;50.540;12.504;2022-09-17T16:30:16;6.18;;;1.40;;
37715;SDS011;23562;50.540;12.504;2022-09-17T16:32:43;5.70;;;1.30;;
37715;SDS011;23562;50.540;12.504;2022-09-17T16:35:12;4.95;;;1.30;;
37715;SDS011;23562;50.540;12.504;2022-09-17T16:37:39;4.55;;;1.60;;
37715;SDS011;23562;50.540;12.504;2022-09-17T16:40:05;5.18;;;1.50;;
37715;SDS011;23562;50.540;12.504;2022-09-17T16:42:31;9.02;;;1.67;;
37715;SDS011;23562;50.540;12.504;2022-09-17T16:44:56;5.32;;;1.63;;
37715;SDS011;23562;50.540;12.504;2022-09-17T16:47:22;8.77;;;1.60;;
37715;SDS011;23562;50.540;12.504;2022-09-17T16:49:48;6.18;;;1.73;;
37715;SDS011;23562;50.540;12.504;2022-09-17T16:52:13;6.20;;;1.80;;
37715;SDS011;23562;50.540;12.504;2022-09-17T16:54:38;26.05;;;11.63;;
37715;SDS011;23562;50.540;12.504;2022-09-17T16:57:03;26.25;;;16.60;;
37715;SDS011;23562;50.540;12.504;2022-09-17T16:59:31;15.63;;;9.32;;
37715;SDS011;23562;50.540;12.504;2022-09-17T17:01:56;17.88;;;10.40;;
37715;SDS011;23562;50.540;12.504;2022-09-17T17:04:21;27.45;;;17.00;;
37715;SDS011;23562;50.540;12.504;2022-09-17T17:06:46;6.03;;;2.63;;
37715;SDS011;23562;50.540;12.504;2022-09-17T17:09:12;13.18;;;6.57;;
37715;SDS011;23562;50.540;12.504;2022-09-17T17:11:37;11.00;;;5.22;;
37715;SDS011;23562;50.540;12.504;2022-09-17T17:14:02;5.43;;;2.20;;
37715;SDS011;23562;50.540;12.504;2022-09-17T17:16:29;63.45;;;34.70;;
37715;SDS011;23562;50.540;12.504;2022-09-17T17:18:55;31.63;;;16.08;;
37715;SDS011;23562;50.540;12.504;2022-09-17T17:21:21;27.92;;;15.82;;
37715;SDS011;23562;50.540;12.504;2022-09-17T17:23:46;10.00;;;6.22;;
37715;SDS011;23562;50.540;12.504;2022-09-17T17:26:11;14.02;;;7.57;;
37715;SDS011;23562;50.540;12.504;2022-09-17T17:28:38;11.02;;;5.35;;
37715;SDS011;23562;50.540;12.504;2022-09-17T17:31:03;8.75;;;4.88;;
37715;SDS011;23562;50.540;12.504;2022-09-17T17:33:29;3.72;;;2.58;;
37715;SDS011;23562;50.540;12.504;2022-09-17T17:35:54;3.33;;;2.10;;
37715;SDS011;23562;50.540;12.504;2022-09-17T17:38:23;4.68;;;3.00;;